Terminal Aerodrome Forecast
Issued by NWS Charleston, WV

Current Version | Previous Version | Graphics & Text | Print | Product List | Glossary On
Versions: 1 2 3 4 5 6 7 8 9 10 11 12 13 14 15 16 17 18 19 20 21 22 23
490
FTUS41 KRLX 230555
TAFCRW
TAF
KCRW 230555Z 2306/2406 26004KT P6SM BKN100
     FM230700 25005KT 6SM -TSRA BKN050CB
     FM231000 23004KT 3SM BR VCSH BKN100
     FM231300 24005KT P6SM SCT050 BKN200
     FM231700 23008KT P6SM VCTS BKN050CB=

USA.gov is the U.S. government's official web portal to all federal, state and local government web resources and services.